createdAt,value
2018-07-04T00:00:01.635Z,99.90
2018-07-04T00:02:50.670Z,99.90
2018-07-04T00:05:37.830Z,99.90
2018-07-04T00:08:28.331Z,99.90
2018-07-04T00:11:15.419Z,99.90
2018-07-04T00:14:02.586Z,99.90
2018-07-04T00:16:49.681Z,99.90
2018-07-04T00:22:36.178Z,99.90
2018-07-04T00:25:23.033Z,99.90
2018-07-04T00:28:10.436Z,99.90
2018-07-04T00:30:58.294Z,99.90
2018-07-04T00:33:45.917Z,99.90
2018-07-04T00:36:32.880Z,99.90
2018-07-04T00:39:27.735Z,99.90
2018-07-04T00:42:14.733Z,99.90
2018-07-04T00:45:07.142Z,99.90
2018-07-04T00:47:55.742Z,99.90
2018-07-04T00:53:41.705Z,99.90
2018-07-04T00:56:36.409Z,99.90
2018-07-04T00:59:23.354Z,99.90
2018-07-04T01:02:16.629Z,99.90
2018-07-04T01:05:04.545Z,99.90
2018-07-04T01:07:54.225Z,99.90
2018-07-04T01:10:41.309Z,99.90
2018-07-04T01:13:36.210Z,99.90
2018-07-04T01:16:23.948Z,99.90
2018-07-04T01:24:27.599Z,99.90
2018-07-04T01:27:14.988Z,99.90
2018-07-04T01:30:04.687Z,99.90
2018-07-04T01:32:51.705Z,99.90
2018-07-04T01:35:40.287Z,99.90
2018-07-04T01:38:27.674Z,99.90
2018-07-04T01:41:16.468Z,99.90
2018-07-04T01:44:04.049Z,99.90
2018-07-04T01:49:32.816Z,99.90
2018-07-04T01:52:20.380Z,99.90
2018-07-04T01:55:07.979Z,99.90
2018-07-04T01:57:55.927Z,99.90
2018-07-04T02:00:43.056Z,99.90
2018-07-04T02:03:31.483Z,99.90
2018-07-04T02:06:18.720Z,99.90
2018-07-04T02:09:07.972Z,99.90
2018-07-04T02:11:55.311Z,99.90
2018-07-04T02:14:43.007Z,99.90
2018-07-04T02:17:30.152Z,99.90
2018-07-04T02:20:17.987Z,99.90
2018-07-04T02:23:05.623Z,99.90
2018-07-04T02:25:54.555Z,99.90
2018-07-04T02:28:41.724Z,99.90
2018-07-04T02:31:29.254Z,99.90
2018-07-04T02:34:16.751Z,99.90
2018-07-04T02:37:04.072Z,99.90
2018-07-04T02:42:35.338Z,99.90
2018-07-04T02:45:22.708Z,99.90
2018-07-04T02:48:10.194Z,99.90
2018-07-04T02:50:58.189Z,99.90
2018-07-04T02:53:45.687Z,99.90
2018-07-04T02:56:33.013Z,99.90
2018-07-04T02:59:20.736Z,99.90
2018-07-04T03:02:08.826Z,99.90
2018-07-04T03:04:56.399Z,99.90
2018-07-04T03:07:43.559Z,99.90
2018-07-04T03:10:32.530Z,99.90
2018-07-04T03:13:20.080Z,99.90
2018-07-04T03:16:08.100Z,99.90
2018-07-04T03:18:55.121Z,99.90
2018-07-04T03:21:43.058Z,99.90
2018-07-04T03:24:30.382Z,99.90
2018-07-04T03:27:19.755Z,99.90
2018-07-04T03:30:07.080Z,99.90
2018-07-04T03:32:54.173Z,99.90
2018-07-04T03:35:42.519Z,99.90
2018-07-04T03:38:31.289Z,99.90
2018-07-04T03:41:18.397Z,99.90
2018-07-04T03:44:06.129Z,99.90
2018-07-04T03:46:53.275Z,99.90
2018-07-04T03:49:41.011Z,99.90
2018-07-04T03:52:28.092Z,99.90
2018-07-04T03:55:16.040Z,99.90
2018-07-04T03:58:03.148Z,99.90
2018-07-04T04:00:51.929Z,99.90
2018-07-04T04:03:40.163Z,99.90
2018-07-04T04:06:28.027Z,99.90
2018-07-04T04:09:15.319Z,99.90
2018-07-04T04:14:44.726Z,99.90
2018-07-04T04:17:32.559Z,99.90
2018-07-04T04:20:20.647Z,99.90
2018-07-04T04:23:08.089Z,99.90
2018-07-04T04:25:56.024Z,99.90
2018-07-04T04:28:43.954Z,99.90
2018-07-04T04:37:00.306Z,99.90
2018-07-04T04:39:49.742Z,99.90
2018-07-04T04:42:37.707Z,99.90
2018-07-04T04:45:25.033Z,99.90
2018-07-04T04:48:13.391Z,99.90
2018-07-04T04:51:00.926Z,99.90
2018-07-04T04:53:49.058Z,99.90
2018-07-04T04:56:37.980Z,99.90
2018-07-04T04:59:25.951Z,99.90
2018-07-04T05:02:13.274Z,99.90
2018-07-04T05:05:01.202Z,99.90
2018-07-04T05:07:48.540Z,99.90
2018-07-04T05:10:39.107Z,99.90
2018-07-04T05:13:27.043Z,99.90
2018-07-04T05:16:14.821Z,99.90
2018-07-04T05:19:02.346Z,99.90
2018-07-04T05:21:50.662Z,99.90
2018-07-04T05:24:37.706Z,99.90
2018-07-04T05:27:25.657Z,99.90
2018-07-04T05:30:12.807Z,99.90
2018-07-04T05:33:00.659Z,99.90
2018-07-04T05:35:47.819Z,99.90
2018-07-04T05:38:35.455Z,99.90
2018-07-04T05:41:23.462Z,99.90
2018-07-04T05:44:11.786Z,99.90
2018-07-04T05:46:59.339Z,99.90
2018-07-04T05:49:46.988Z,99.90
2018-07-04T05:52:34.906Z,99.90
2018-07-04T05:55:22.227Z,99.90
2018-07-04T05:58:10.236Z,99.90
2018-07-04T06:00:57.481Z,99.90
2018-07-04T06:06:30.019Z,99.90
2018-07-04T06:09:19.391Z,99.90
2018-07-04T06:12:08.099Z,99.90
2018-07-04T06:15:00.094Z,99.90
2018-07-04T06:17:49.281Z,99.90
2018-07-04T06:20:41.535Z,99.90
2018-07-04T06:26:34.512Z,99.90
2018-07-04T06:29:36.227Z,99.90
2018-07-04T06:35:51.208Z,99.90
2018-07-04T06:44:31.855Z,99.90
2018-07-04T06:50:52.588Z,99.90
2018-07-04T06:56:35.144Z,99.90
2018-07-04T07:06:06.943Z,99.90
2018-07-04T07:22:11.171Z,99.90
2018-07-04T07:25:55.971Z,99.90
2018-07-04T07:28:44.321Z,99.70
2018-07-04T07:31:31.387Z,99.80
2018-07-04T07:34:20.282Z,99.10
2018-07-04T07:37:07.480Z,98.20
2018-07-04T07:39:55.458Z,97.60
2018-07-04T07:42:42.949Z,96.20
2018-07-04T07:48:12.767Z,96.50
2018-07-04T07:51:00.595Z,95.80
2018-07-04T07:53:47.769Z,96.20
2018-07-04T07:56:36.337Z,95.80
2018-07-04T07:59:25.709Z,94.70
2018-07-04T08:02:13.721Z,94.70
2018-07-04T08:05:01.734Z,94.50
2018-07-04T08:07:50.570Z,93.50
2018-07-04T08:10:38.687Z,94.10
2018-07-04T08:13:26.223Z,93.00
2018-07-04T08:19:17.450Z,93.10
2018-07-04T08:22:04.579Z,92.50
2018-07-04T08:24:53.323Z,92.20
2018-07-04T08:27:40.543Z,91.60
2018-07-04T08:30:28.790Z,90.90
2018-07-04T08:33:15.769Z,90.60
2018-07-04T08:38:51.256Z,90.60
2018-07-04T08:41:39.494Z,90.40
2018-07-04T08:44:27.226Z,91.50
2018-07-04T08:47:16.838Z,90.40
2018-07-04T08:50:04.819Z,87.50
2018-07-04T08:52:55.028Z,88.30
2018-07-04T08:55:45.473Z,88.40
2018-07-04T08:58:34.341Z,88.90
2018-07-04T09:01:21.979Z,89.20
2018-07-04T09:04:10.108Z,85.00
2018-07-04T09:06:57.379Z,86.40
2018-07-04T09:09:45.731Z,82.70
2018-07-04T09:12:32.901Z,84.10
2018-07-04T09:15:20.482Z,79.20
2018-07-04T09:18:07.566Z,80.40
2018-07-04T09:20:55.844Z,77.50
2018-07-04T09:23:43.894Z,76.90
2018-07-04T09:26:31.453Z,73.60
2018-07-04T09:29:20.072Z,73.00
2018-07-04T09:32:08.217Z,73.00
2018-07-04T09:34:55.482Z,71.30
2018-07-04T09:37:43.877Z,69.70
2018-07-04T09:40:30.808Z,70.30
2018-07-04T09:43:18.378Z,70.70
2018-07-04T09:46:06.479Z,68.80
2018-07-04T09:48:55.006Z,67.00
2018-07-04T09:51:42.911Z,67.30
2018-07-04T09:54:30.712Z,67.10
2018-07-04T09:57:18.743Z,66.50
2018-07-04T10:00:06.332Z,64.10
2018-07-04T10:02:55.006Z,64.00
2018-07-04T10:05:43.471Z,63.60
2018-07-04T10:08:31.702Z,61.70
2018-07-04T10:11:20.004Z,61.30
2018-07-04T10:14:08.983Z,61.50
2018-07-04T10:16:58.287Z,62.60
2018-07-04T10:19:44.987Z,61.40
2018-07-04T10:22:32.535Z,61.30
2018-07-04T10:25:19.591Z,59.50
2018-07-04T10:28:07.821Z,60.10
2018-07-04T10:33:36.406Z,58.40
2018-07-04T10:36:23.641Z,59.00
2018-07-04T10:39:11.749Z,58.40
2018-07-04T10:41:59.633Z,57.00
2018-07-04T10:44:47.644Z,57.90
2018-07-04T10:47:35.183Z,57.70
2018-07-04T10:50:23.162Z,58.10
2018-07-04T10:53:11.091Z,57.70
2018-07-04T10:55:58.786Z,56.30
2018-07-04T10:58:46.360Z,54.50
2018-07-04T11:01:35.179Z,55.10
2018-07-04T11:04:23.119Z,53.70
2018-07-04T11:07:10.763Z,54.60
2018-07-04T11:09:58.071Z,54.10
2018-07-04T11:12:45.856Z,53.60
2018-07-04T11:15:32.785Z,53.00
2018-07-04T11:18:21.127Z,54.30
2018-07-04T11:21:08.185Z,54.10
2018-07-04T11:24:00.075Z,54.40
2018-07-04T11:26:47.354Z,54.20
2018-07-04T11:29:36.369Z,53.60
2018-07-04T11:32:23.431Z,52.00
2018-07-04T11:35:11.461Z,50.10
2018-07-04T11:37:58.802Z,51.40
2018-07-04T11:40:46.687Z,50.80
2018-07-04T11:43:33.603Z,51.70
2018-07-04T11:46:08.499Z,51.00
2018-07-04T11:48:37.187Z,50.70
2018-07-04T11:51:16.667Z,50.00
2018-07-04T11:53:46.258Z,50.00
2018-07-04T11:56:16.302Z,49.20
2018-07-04T11:58:44.978Z,48.80
2018-07-04T12:01:13.807Z,48.20
2018-07-04T12:03:55.008Z,48.90
2018-07-04T12:06:42.181Z,48.20
2018-07-04T12:09:16.738Z,47.80
2018-07-04T12:11:45.901Z,47.50
2018-07-04T12:14:15.539Z,47.80
2018-07-04T12:16:44.066Z,47.60
2018-07-04T12:19:13.045Z,47.90
2018-07-04T12:21:41.751Z,48.30
2018-07-04T12:24:10.625Z,48.20
2018-07-04T12:26:39.335Z,47.90
2018-07-04T12:29:09.324Z,49.10
2018-07-04T12:31:38.786Z,49.20
2018-07-04T12:34:07.286Z,48.00
2018-07-04T12:36:36.147Z,48.60
2018-07-04T12:39:06.336Z,48.10
2018-07-04T12:41:34.910Z,48.50
2018-07-04T12:44:05.498Z,47.60
2018-07-04T12:46:34.184Z,49.30
2018-07-04T12:51:34.053Z,48.40
2018-07-04T12:54:09.371Z,46.80
2018-07-04T12:56:52.393Z,48.10
2018-07-04T12:59:40.197Z,47.30
2018-07-04T13:02:27.474Z,48.50
2018-07-04T13:05:16.720Z,48.80
2018-07-04T13:08:04.148Z,48.90
2018-07-04T13:10:51.842Z,48.90
2018-07-04T13:13:39.182Z,48.00
2018-07-04T13:16:27.203Z,47.10
2018-07-04T13:19:15.239Z,46.90
2018-07-04T13:22:04.252Z,48.50
2018-07-04T13:24:51.668Z,48.30
2018-07-04T13:27:39.481Z,48.20
2018-07-04T13:30:26.767Z,46.90
2018-07-04T13:33:15.968Z,48.80
2018-07-04T13:36:02.996Z,48.20
2018-07-04T13:41:31.618Z,47.60
2018-07-04T13:44:19.615Z,48.60
2018-07-04T13:47:07.902Z,48.30
2018-07-04T13:49:56.047Z,47.60
2018-07-04T13:52:43.174Z,47.10
2018-07-04T13:55:30.772Z,47.30
2018-07-04T13:58:18.095Z,47.50
2018-07-04T14:01:06.270Z,48.20
2018-07-04T14:03:54.387Z,47.70
2018-07-04T14:06:41.867Z,47.20
2018-07-04T14:09:29.144Z,47.60
2018-07-04T14:12:19.136Z,45.60
2018-07-04T14:15:06.350Z,46.70
2018-07-04T14:17:55.353Z,48.40
2018-07-04T14:20:42.546Z,47.80
2018-07-04T14:23:29.966Z,47.70
2018-07-04T14:26:17.695Z,46.70
2018-07-04T14:29:05.937Z,46.90
2018-07-04T14:31:54.227Z,47.20
2018-07-04T14:34:42.019Z,46.80
2018-07-04T14:37:29.694Z,46.10
2018-07-04T14:40:17.223Z,45.90
2018-07-04T14:43:04.935Z,45.90
2018-07-04T14:51:16.658Z,45.40
2018-07-04T14:54:03.905Z,45.50
2018-07-04T14:56:51.817Z,45.90
2018-07-04T14:59:39.030Z,45.70
2018-07-04T15:05:08.621Z,45.60
2018-07-04T15:07:56.830Z,45.20
2018-07-04T15:13:25.623Z,46.50
2018-07-04T15:16:13.927Z,46.80
2018-07-04T15:19:01.508Z,48.40
2018-07-04T15:21:49.745Z,48.40
2018-07-04T15:24:38.394Z,47.50
2018-07-04T15:27:26.615Z,48.40
2018-07-04T15:30:14.538Z,48.10
2018-07-04T15:33:02.203Z,48.50
2018-07-04T15:35:49.590Z,49.30
2018-07-04T15:38:37.907Z,48.80
2018-07-04T15:44:06.550Z,48.10
2018-07-04T15:46:54.753Z,47.30
2018-07-04T15:49:47.812Z,47.40
2018-07-04T15:52:35.690Z,47.30
2018-07-04T15:55:23.596Z,47.80
2018-07-04T15:58:11.194Z,47.70
2018-07-04T16:00:59.050Z,47.80
2018-07-04T16:03:47.389Z,47.70
2018-07-04T16:06:34.537Z,48.10
2018-07-04T16:09:21.890Z,47.70
2018-07-04T16:15:11.231Z,47.90
2018-07-04T16:17:58.523Z,48.30
2018-07-04T16:20:45.795Z,48.60
2018-07-04T16:26:15.119Z,50.00
2018-07-04T16:29:02.546Z,50.00
2018-07-04T16:31:50.893Z,50.00
2018-07-04T16:34:37.940Z,49.30
2018-07-04T16:37:25.099Z,49.40
2018-07-04T16:40:12.455Z,49.00
2018-07-04T16:42:59.870Z,49.30
2018-07-04T16:45:47.116Z,49.10
2018-07-04T16:48:34.491Z,49.40
2018-07-04T16:51:21.865Z,49.00
2018-07-04T16:54:09.652Z,49.70
2018-07-04T16:56:56.720Z,49.60
2018-07-04T16:59:44.045Z,49.60
2018-07-04T17:02:31.077Z,49.40
2018-07-04T17:05:18.437Z,49.60
2018-07-04T17:08:05.760Z,49.50
2018-07-04T17:10:53.137Z,49.40
2018-07-04T17:13:40.358Z,49.50
2018-07-04T17:16:28.195Z,49.20
2018-07-04T17:21:57.731Z,49.30
2018-07-04T17:24:45.503Z,49.70
2018-07-04T17:27:32.998Z,49.60
2018-07-04T17:30:21.651Z,50.00
2018-07-04T17:33:09.697Z,50.10
2018-07-04T17:38:38.347Z,50.50
2018-07-04T17:41:26.083Z,50.80
2018-07-04T17:44:14.630Z,50.90
2018-07-04T17:47:02.379Z,51.20
2018-07-04T17:49:50.084Z,51.70
2018-07-04T17:52:39.328Z,51.80
2018-07-04T17:58:11.520Z,52.90
2018-07-04T18:01:00.362Z,53.10
2018-07-04T18:03:48.220Z,53.60
2018-07-04T18:06:37.140Z,53.70
2018-07-04T18:09:24.452Z,53.70
2018-07-04T18:12:13.026Z,53.90
2018-07-04T18:15:00.384Z,54.10
2018-07-04T18:17:49.210Z,54.30
2018-07-04T18:20:36.829Z,54.80
2018-07-04T18:23:24.606Z,54.90
2018-07-04T18:26:12.124Z,55.50
2018-07-04T18:29:01.046Z,55.40
2018-07-04T18:31:48.162Z,55.80
2018-07-04T18:34:36.303Z,55.80
2018-07-04T18:37:23.480Z,56.30
2018-07-04T18:40:14.712Z,56.40
2018-07-04T18:43:29.818Z,56.70
2018-07-04T18:46:20.430Z,57.30
2018-07-04T18:49:08.759Z,57.60
2018-07-04T18:51:56.500Z,57.70
2018-07-04T18:54:44.035Z,57.90
2018-07-04T18:57:32.374Z,57.90
2018-07-04T19:00:19.764Z,58.40
2018-07-04T19:03:09.278Z,58.40
2018-07-04T19:05:57.634Z,58.90
2018-07-04T19:08:47.031Z,59.40
2018-07-04T19:11:36.250Z,59.60
2018-07-04T19:14:24.603Z,59.80
2018-07-04T19:17:15.020Z,60.60
2018-07-04T19:20:02.663Z,60.50
2018-07-04T19:22:56.944Z,61.20
2018-07-04T19:29:00.239Z,61.30
2018-07-04T19:31:51.603Z,62.10
2018-07-04T19:34:40.620Z,61.90
2018-07-04T19:37:31.053Z,62.20
2018-07-04T19:40:18.640Z,62.30
2018-07-04T19:43:08.370Z,62.60
2018-07-04T19:45:55.560Z,62.80
2018-07-04T19:48:43.267Z,62.90
2018-07-04T19:51:32.014Z,63.10
2018-07-04T19:54:19.906Z,63.40
2018-07-04T19:57:07.135Z,63.20
2018-07-04T19:59:55.043Z,63.30
2018-07-04T20:02:42.504Z,63.80
2018-07-04T20:05:31.145Z,63.90
2018-07-04T20:08:18.577Z,64.00
2018-07-04T20:11:06.431Z,64.10
2018-07-04T20:13:54.041Z,64.80
2018-07-04T20:16:41.328Z,65.00
2018-07-04T20:19:30.017Z,65.00
2018-07-04T20:22:17.538Z,65.40
2018-07-04T20:25:05.390Z,66.00
2018-07-04T20:27:56.631Z,66.40
2018-07-04T20:30:46.531Z,66.70
2018-07-04T20:33:34.328Z,67.10
2018-07-04T20:36:21.846Z,67.40
2018-07-04T20:39:09.035Z,67.50
2018-07-04T20:41:56.536Z,67.30
2018-07-04T20:44:45.502Z,67.50
2018-07-04T20:47:37.628Z,67.80
2018-07-04T20:50:26.390Z,68.10
2018-07-04T20:53:24.430Z,68.20
2018-07-04T20:56:12.471Z,68.30
2018-07-04T20:59:00.687Z,68.00
2018-07-04T21:01:49.953Z,67.90
2018-07-04T21:04:37.498Z,68.20
2018-07-04T21:07:26.791Z,68.80
2018-07-04T21:10:14.393Z,69.10
2018-07-04T21:13:02.104Z,69.50
2018-07-04T21:15:49.389Z,70.10
2018-07-04T21:18:37.344Z,69.70
2018-07-04T21:21:26.143Z,69.90
2018-07-04T21:24:13.884Z,70.00
2018-07-04T21:27:02.752Z,70.70
2018-07-04T21:29:51.677Z,70.70
2018-07-04T21:32:39.938Z,71.00
2018-07-04T21:35:28.007Z,70.90
2018-07-04T21:38:16.656Z,71.00
2018-07-04T21:41:04.162Z,71.60
2018-07-04T21:43:51.576Z,72.00
2018-07-04T21:46:39.462Z,72.70
2018-07-04T21:49:27.204Z,73.10
2018-07-04T21:52:17.059Z,73.30
2018-07-04T21:55:04.375Z,74.20
2018-07-04T21:57:53.544Z,75.40
2018-07-04T22:00:43.652Z,75.40
2018-07-04T22:03:32.874Z,76.10
2018-07-04T22:06:20.203Z,77.30
2018-07-04T22:09:07.242Z,76.80
2018-07-04T22:11:54.757Z,77.60
2018-07-04T22:14:43.334Z,77.70
2018-07-04T22:17:30.826Z,77.60
2018-07-04T22:20:19.340Z,78.80
2018-07-04T22:23:06.870Z,79.10
2018-07-04T22:25:56.048Z,80.00
2018-07-04T22:28:43.385Z,80.20
2018-07-04T22:31:31.563Z,82.00
2018-07-04T22:34:18.992Z,80.70
2018-07-04T22:37:06.999Z,80.10
2018-07-04T22:39:54.121Z,81.80
2018-07-04T22:42:42.786Z,81.60
2018-07-04T22:45:30.545Z,81.40
2018-07-04T22:48:18.301Z,81.20
2018-07-04T22:51:05.669Z,81.20
2018-07-04T22:53:53.560Z,81.70
2018-07-04T22:59:22.292Z,82.60
2018-07-04T23:02:10.173Z,83.20
2018-07-04T23:04:57.816Z,83.80
2018-07-04T23:07:44.995Z,84.80
2018-07-04T23:10:32.747Z,84.60
2018-07-04T23:13:19.969Z,85.00
2018-07-04T23:16:07.633Z,85.00
2018-07-04T23:18:54.934Z,85.50
2018-07-04T23:21:43.958Z,86.50
2018-07-04T23:24:30.930Z,87.00
2018-07-04T23:27:18.550Z,87.10
2018-07-04T23:30:05.714Z,87.70
2018-07-04T23:32:54.551Z,88.80
2018-07-04T23:35:42.690Z,90.10
2018-07-04T23:38:31.646Z,90.70
2018-07-04T23:41:18.780Z,91.30
2018-07-04T23:44:06.307Z,91.80
2018-07-04T23:46:53.532Z,92.10
2018-07-04T23:49:41.034Z,93.20
2018-07-04T23:52:28.106Z,93.40
2018-07-04T23:55:17.124Z,94.40
2018-07-04T23:58:04.093Z,94.80
